Time;durP1;ratioP1;P1;durP2;ratioP2;P2;SDS_P1;SDS_P2;PMS_P1;PMS_P2;Temp;Humidity;BMP_temperature;BMP_pressure;BME280_temperature;BME280_humidity;BME280_pressure;Samples;Min_cycle;Max_cycle;Signal;HPM_P1;HPM_P2
2023/10/25 00:03:23;;;;;;;19.45;10.90;;;;;;;8.51;100.00;99950.22;10417389;28;20048;-68
2023/10/25 00:08:24;;;;;;;21.50;10.02;;;;;;;8.44;100.00;99952.38;10417256;28;20109;-73
2023/10/25 00:13:24;;;;;;;20.67;9.88;;;;;;;8.42;100.00;99943.56;10416019;28;20045;-74
2023/10/25 00:18:25;;;;;;;15.77;9.52;;;;;;;8.38;100.00;99948.72;10417715;28;20041;-73
2023/10/25 00:23:26;;;;;;;24.00;10.35;;;;;;;8.34;100.00;99955.00;10416358;28;20038;-72
2023/10/25 00:28:26;;;;;;;19.98;9.50;;;;;;;8.31;100.00;99941.78;10416906;28;20064;-72
2023/10/25 00:33:27;;;;;;;18.50;10.52;;;;;;;8.31;100.00;99950.88;10416656;28;20053;-72
2023/10/25 00:38:27;;;;;;;22.40;10.45;;;;;;;8.27;100.00;99957.97;10417169;28;20034;-74
2023/10/25 00:43:28;;;;;;;15.65;8.88;;;;;;;8.21;100.00;99948.84;10416899;28;20038;-73
2023/10/25 00:48:28;;;;;;;18.98;8.73;;;;;;;8.12;100.00;99933.13;10417160;28;20041;-73
2023/10/25 00:53:31;;;;;;;14.98;7.70;;;;;;;8.17;100.00;99955.13;10415395;28;20068;-73
2023/10/25 00:58:31;;;;;;;17.05;8.98;;;;;;;8.14;100.00;99953.72;10414648;28;20097;-73
2023/10/25 01:03:32;;;;;;;14.68;8.27;;;;;;;8.09;100.00;99954.50;10414567;28;20061;-74
2023/10/25 01:08:32;;;;;;;16.98;8.43;;;;;;;8.05;100.00;99955.28;10414234;28;20056;-67
2023/10/25 01:13:32;;;;;;;12.65;7.70;;;;;;;7.98;100.00;99958.25;10414838;28;20056;-73
2023/10/25 01:18:33;;;;;;;21.92;7.97;;;;;;;7.94;100.00;99959.00;10416173;28;20041;-72
2023/10/25 01:23:33;;;;;;;16.35;7.40;;;;;;;7.90;100.00;99947.75;10415440;28;20048;-72
2023/10/25 01:28:34;;;;;;;13.50;7.22;;;;;;;7.91;100.00;99951.31;10415810;28;20062;-74
2023/10/25 01:33:34;;;;;;;17.00;9.73;;;;;;;7.89;100.00;99952.38;10413300;28;20485;-73
2023/10/25 01:38:35;;;;;;;16.08;7.25;;;;;;;7.90;100.00;99950.50;10415383;28;20064;-73
2023/10/25 01:43:35;;;;;;;22.70;8.38;;;;;;;7.87;100.00;99959.22;10415443;28;20053;-74
2023/10/25 01:48:37;;;;;;;13.95;7.50;;;;;;;7.79;100.00;99946.84;10415758;28;20045;-73
2023/10/25 01:53:37;;;;;;;14.25;7.03;;;;;;;7.85;100.00;99962.25;10415316;28;20049;-72
2023/10/25 01:58:38;;;;;;;16.80;8.77;;;;;;;7.86;100.00;99958.41;10415008;28;20052;-74
2023/10/25 02:03:38;;;;;;;16.75;8.00;;;;;;;7.83;100.00;99952.59;10414687;28;20049;-76
2023/10/25 02:08:39;;;;;;;15.52;8.32;;;;;;;7.80;100.00;99953.97;10415413;28;20046;-72
2023/10/25 02:13:39;;;;;;;13.60;7.82;;;;;;;7.80;100.00;99953.97;10415769;28;20037;-73
2023/10/25 02:18:40;;;;;;;15.73;8.40;;;;;;;7.84;100.00;99944.13;10415239;28;20038;-73
2023/10/25 02:23:42;;;;;;;21.67;10.02;;;;;;;7.81;100.00;99939.19;10417143;28;20041;-69
2023/10/25 02:28:43;;;;;;;17.02;9.02;;;;;;;7.81;100.00;99932.84;10421785;28;20041;-72
2023/10/25 02:33:43;;;;;;;15.25;9.45;;;;;;;7.79;100.00;99930.41;10421765;28;20045;-71
2023/10/25 02:38:46;;;;;;;27.08;9.95;;;;;;;7.80;100.00;99932.03;10422146;28;20048;-71
2023/10/25 02:43:47;;;;;;;16.48;9.55;;;;;;;7.79;100.00;99930.41;10420063;28;20056;-72
2023/10/25 02:48:49;;;;;;;23.63;10.93;;;;;;;7.77;100.00;99929.81;10421121;28;20091;-73
2023/10/25 02:53:52;;;;;;;21.52;10.65;;;;;;;7.72;100.00;99935.25;10432732;28;20052;-73
2023/10/25 02:58:53;;;;;;;22.55;11.48;;;;;;;7.67;100.00;99932.47;10418876;28;20072;-72
2023/10/25 03:03:53;;;;;;;22.77;12.68;;;;;;;7.68;100.00;99917.66;10420875;28;20060;-74
2023/10/25 03:08:53;;;;;;;20.10;11.10;;;;;;;7.66;100.00;99920.66;10421114;28;20029;-72
2023/10/25 03:13:54;;;;;;;22.10;11.68;;;;;;;7.66;100.00;99922.56;10421075;28;20037;-72
2023/10/25 03:18:54;;;;;;;21.55;12.20;;;;;;;7.60;100.00;99920.88;10420864;28;20452;-75
2023/10/25 03:23:55;;;;;;;26.27;11.63;;;;;;;7.53;100.00;99901.09;10420191;28;20045;-73
2023/10/25 03:28:57;;;;;;;25.48;11.90;;;;;;;7.54;100.00;99906.28;10418383;28;20046;-73
2023/10/25 03:33:57;;;;;;;28.58;11.90;;;;;;;7.56;100.00;99908.78;10400520;28;20046;-73
2023/10/25 03:38:59;;;;;;;20.13;11.23;;;;;;;7.53;100.00;99909.31;10419431;28;20045;-73
2023/10/25 03:44:00;;;;;;;22.27;12.27;;;;;;;7.47;100.00;99898.28;10418504;28;20046;-73
2023/10/25 03:49:00;;;;;;;20.75;11.95;;;;;;;7.46;100.00;99893.91;10418863;28;20068;-75
2023/10/25 03:54:01;;;;;;;23.85;13.10;;;;;;;7.42;100.00;99895.50;10419195;28;20029;-75
2023/10/25 03:59:01;;;;;;;27.10;13.30;;;;;;;7.39;100.00;99893.25;10419165;28;20040;-69
2023/10/25 04:04:02;;;;;;;28.65;11.95;;;;;;;7.46;100.00;99893.91;10418775;28;20057;-75
2023/10/25 04:09:03;;;;;;;21.20;10.75;;;;;;;7.41;100.00;99895.75;10416884;28;20037;-76
2023/10/25 04:14:03;;;;;;;18.75;10.00;;;;;;;7.28;100.00;99896.97;10417466;28;20037;-76
2023/10/25 04:19:03;;;;;;;19.15;10.02;;;;;;;7.17;100.00;99889.72;10417646;28;20037;-75
2023/10/25 04:24:04;;;;;;;22.55;10.23;;;;;;;7.08;100.00;99884.69;10417447;28;20064;-74
2023/10/25 04:29:05;;;;;;;21.48;10.80;;;;;;;7.03;100.00;99890.13;10417906;28;20038;-74
2023/10/25 04:34:05;;;;;;;18.50;10.90;;;;;;;6.89;100.00;99866.97;10417458;28;20034;-74
2023/10/25 04:39:08;;;;;;;21.98;11.32;;;;;;;6.90;100.00;99879.53;10416162;28;20040;-73
2023/10/25 04:44:08;;;;;;;19.90;10.75;;;;;;;6.85;100.00;99877.56;10414630;28;20038;-74
2023/10/25 04:49:09;;;;;;;22.08;11.32;;;;;;;6.79;100.00;99881.31;10417411;28;20038;-74
2023/10/25 04:54:09;;;;;;;18.05;10.55;;;;;;;6.72;100.00;99877.97;10417321;28;20033;-73
2023/10/25 04:59:10;;;;;;;18.58;10.80;;;;;;;6.60;100.00;99872.59;10416809;28;20033;-73
2023/10/25 05:04:10;;;;;;;22.13;11.73;;;;;;;6.47;100.00;99870.25;10415443;28;20041;-73
2023/10/25 05:09:11;;;;;;;18.73;10.73;;;;;;;6.40;100.00;99872.31;10415718;28;20049;-73
2023/10/25 05:14:12;;;;;;;20.80;10.57;;;;;;;6.28;100.00;99871.59;10416798;28;20041;-73
2023/10/25 05:19:12;;;;;;;21.17;11.98;;;;;;;6.18;100.00;99870.38;10416820;28;20029;-74
2023/10/25 05:24:13;;;;;;;21.27;11.38;;;;;;;6.16;100.00;99858.84;10415821;28;20105;-74
2023/10/25 05:29:14;;;;;;;23.23;10.75;;;;;;;6.04;100.00;99853.47;10415312;28;20037;-73
2023/10/25 05:34:15;;;;;;;24.85;12.40;;;;;;;6.05;100.00;99867.97;10413416;28;20044;-73
2023/10/25 05:39:16;;;;;;;22.48;13.02;;;;;;;6.06;100.00;99862.25;10414851;28;20041;-73
2023/10/25 05:44:17;;;;;;;23.27;11.80;;;;;;;5.95;100.00;99846.75;10414814;28;20076;-73
2023/10/25 05:49:17;;;;;;;24.25;11.85;;;;;;;6.04;100.00;99860.84;10407677;28;20041;-73
2023/10/25 05:54:18;;;;;;;21.55;12.05;;;;;;;6.12;100.00;99863.16;10415327;28;20049;-75
2023/10/25 05:59:19;;;;;;;24.38;12.45;;;;;;;6.15;100.00;99851.72;10418433;28;20121;-75
2023/10/25 06:04:22;;;;;;;29.98;14.20;;;;;;;6.10;100.00;99854.38;10423375;28;20042;-74
2023/10/25 06:09:23;;;;;;;21.55;12.68;;;;;;;6.09;100.00;99862.81;10405388;28;20046;-74
2023/10/25 06:14:23;;;;;;;30.58;14.32;;;;;;;6.10;100.00;99862.59;10422439;28;20041;-74
2023/10/25 06:19:24;;;;;;;32.42;13.73;;;;;;;6.10;100.00;99870.78;10421718;28;20048;-72
2023/10/25 06:24:25;;;;;;;29.00;13.32;;;;;;;6.15;100.00;99873.59;10422242;28;20422;-74
2023/10/25 06:29:25;;;;;;;29.88;15.60;;;;;;;6.22;100.00;99876.13;10421647;28;20045;-73
2023/10/25 06:34:26;;;;;;;28.02;14.30;;;;;;;6.23;100.00;99869.59;10422387;28;20072;-72
2023/10/25 06:39:27;;;;;;;28.90;13.10;;;;;;;6.34;100.00;99870.59;10421036;28;21033;-73
2023/10/25 06:44:29;;;;;;;30.08;15.98;;;;;;;6.31;100.00;99854.69;10420095;28;20048;-74
2023/10/25 06:49:30;;;;;;;28.50;14.90;;;;;;;6.44;100.00;99870.72;10420006;28;20052;-74
2023/10/25 06:54:31;;;;;;;29.60;14.45;;;;;;;6.44;100.00;99870.72;10421197;28;20034;-73
2023/10/25 06:59:31;;;;;;;31.75;15.18;;;;;;;6.44;100.00;99866.09;10421062;28;20037;-73
2023/10/25 07:04:32;;;;;;;31.85;14.25;;;;;;;6.44;100.00;99854.31;10421588;28;20036;-74
2023/10/25 07:09:33;;;;;;;29.42;15.43;;;;;;;6.52;100.00;99867.56;10400435;28;20056;-73
2023/10/25 07:14:33;;;;;;;31.15;14.40;;;;;;;6.61;100.00;99866.03;10421497;28;20041;-73
2023/10/25 07:19:34;;;;;;;29.65;15.63;;;;;;;6.73;100.00;99867.84;10420637;28;20057;-73
2023/10/25 07:24:34;;;;;;;27.92;13.75;;;;;;;6.79;100.00;99861.34;10420325;28;20041;-73
2023/10/25 07:29:36;;;;;;;34.15;14.90;;;;;;;6.84;100.00;99847.72;10419740;28;20057;-74
2023/10/25 07:34:37;;;;;;;28.48;16.25;;;;;;;6.91;100.00;99847.56;10417436;28;20053;-75
2023/10/25 07:39:40;;;;;;;35.10;16.45;;;;;;;7.01;100.00;99848.50;10419542;28;20065;-74
2023/10/25 07:44:40;;;;;;;29.00;16.70;;;;;;;7.03;100.00;99846.34;10419886;28;20033;-75
2023/10/25 07:49:45;;;;;;;30.00;17.13;;;;;;;7.08;100.00;99843.63;10417953;28;20199;-74
2023/10/25 07:54:46;;;;;;;34.60;16.80;;;;;;;7.16;100.00;99841.53;10418419;28;20057;-73
2023/10/25 07:59:46;;;;;;;34.85;17.40;;;;;;;7.22;100.00;99843.25;10418990;28;20113;-74
2023/10/25 08:04:46;;;;;;;33.75;18.08;;;;;;;7.30;100.00;99847.41;10413764;28;20037;-73
2023/10/25 08:09:47;;;;;;;34.80;18.30;;;;;;;7.39;100.00;99835.75;10416883;28;20048;-73
2023/10/25 08:14:47;;;;;;;41.20;18.58;;;;;;;7.53;100.00;99832.63;10417247;28;20064;-75
2023/10/25 08:19:48;;;;;;;35.60;19.60;;;;;;;7.64;100.00;99824.22;10409858;28;20070;-75
2023/10/25 08:24:48;;;;;;;37.55;18.13;;;;;;;7.76;100.00;99824.03;10410586;28;20044;-71
2023/10/25 08:29:49;;;;;;;32.67;18.13;;;;;;;7.87;100.00;99812.09;10412825;28;20072;-74
2023/10/25 08:34:49;;;;;;;32.47;18.67;;;;;;;7.96;100.00;99806.94;10409301;28;20037;-76
2023/10/25 08:39:50;;;;;;;41.25;20.48;;;;;;;8.11;100.00;99806.22;10405546;28;20033;-71
2023/10/25 08:44:50;;;;;;;29.80;17.98;;;;;;;8.27;100.00;99799.72;10409017;28;20042;-75
2023/10/25 08:49:50;;;;;;;32.42;17.73;;;;;;;8.40;100.00;99787.47;10408980;28;20065;-75
2023/10/25 08:54:51;;;;;;;40.10;19.45;;;;;;;8.56;100.00;99780.16;10409460;28;20033;-75
2023/10/25 08:59:52;;;;;;;31.27;17.25;;;;;;;8.77;100.00;99788.47;10372837;28;20041;-75
2023/10/25 09:04:59;;;;;;;30.45;18.10;;;;;;;8.98;100.00;99792.09;10403862;28;20042;-75
2023/10/25 09:09:59;;;;;;;31.77;16.88;;;;;;;9.15;100.00;99797.38;10410373;28;20049;-75
2023/10/25 09:15:00;;;;;;;33.75;16.58;;;;;;;9.29;100.00;99804.81;10408406;28;20437;-75
2023/10/25 09:20:00;;;;;;;25.25;15.50;;;;;;;9.42;100.00;99803.44;10400948;28;20044;-74
2023/10/25 09:25:02;;;;;;;26.27;15.18;;;;;;;9.58;100.00;99806.22;10411173;28;20424;-74
2023/10/25 09:30:11;;;;;;;28.48;14.55;;;;;;;9.70;100.00;99804.84;10415737;28;20048;-75
2023/10/25 09:35:11;;;;;;;22.30;13.82;;;;;;;9.81;100.00;99802.91;10408293;28;20050;-75
2023/10/25 09:40:13;;;;;;;25.27;12.82;;;;;;;9.77;100.00;99792.75;10414266;28;20041;-74
2023/10/25 09:45:14;;;;;;;19.75;12.00;;;;;;;9.99;100.00;99795.22;10415462;28;20099;-74
2023/10/25 09:50:26;;;;;;;22.48;13.68;;;;;;;10.29;100.00;99797.94;10395253;28;20551;-74
2023/10/25 09:55:26;;;;;;;21.27;11.40;;;;;;;10.52;100.00;99792.09;10397859;28;20100;-72
2023/10/25 10:00:28;;;;;;;20.08;10.63;;;;;;;10.83;100.00;99809.31;10397441;28;20034;-73
2023/10/25 10:05:41;;;;;;;17.42;10.18;;;;;;;11.21;100.00;99795.91;10413973;28;20037;-73
2023/10/25 10:10:50;;;;;;;15.93;9.70;;;;;;;11.46;100.00;99784.69;10409934;28;20528;-73
2023/10/25 10:16:11;;;;;;;13.02;7.57;;;;;;;11.79;100.00;99787.75;10419707;28;20926;-72
2023/10/25 10:21:13;;;;;;;10.48;6.35;;;;;;;12.00;100.00;99771.84;10402539;28;20038;-71
2023/10/25 10:26:14;;;;;;;13.45;6.88;;;;;;;12.16;100.00;99772.53;10407752;28;20041;-72
2023/10/25 10:31:17;;;;;;;12.45;6.82;;;;;;;12.27;100.00;99760.25;10396940;28;20046;-71
2023/10/25 10:36:30;;;;;;;11.93;6.57;;;;;;;12.38;100.00;99755.47;10414640;28;20042;-72
2023/10/25 10:41:31;;;;;;;9.60;5.63;;;;;;;12.46;100.00;99743.78;10423322;28;20060;-72
2023/10/25 10:46:33;;;;;;;11.23;6.53;;;;;;;12.69;100.00;99739.34;10418203;28;20041;-71
2023/10/25 10:51:34;;;;;;;9.40;4.90;;;;;;;12.87;100.00;99732.19;10419515;28;20051;-72
2023/10/25 10:56:34;;;;;;;6.93;4.35;;;;;;;12.94;100.00;99723.53;10403782;28;20074;-72
2023/10/25 11:01:35;;;;;;;8.40;4.95;;;;;;;12.92;100.00;99723.03;10418714;28;20048;-71
2023/10/25 11:06:35;;;;;;;8.93;4.18;;;;;;;12.86;100.00;99726.97;10395045;28;20880;-72
2023/10/25 11:11:36;;;;;;;8.32;4.40;;;;;;;12.72;100.00;99722.16;10395601;28;20126;-72
2023/10/25 11:16:36;;;;;;;6.57;4.00;;;;;;;12.70;100.00;99727.16;10395661;28;20104;-71
2023/10/25 11:21:37;;;;;;;6.57;3.53;;;;;;;12.75;100.00;99722.69;10394071;28;20046;-72
2023/10/25 11:26:40;;;;;;;10.65;3.78;;;;;;;12.76;100.00;99724.34;10393377;28;20041;-71
2023/10/25 11:31:41;;;;;;;11.43;3.22;;;;;;;12.75;100.00;99706.13;10395026;28;20047;-71
2023/10/25 11:36:42;;;;;;;10.85;4.25;;;;;;;12.56;100.00;99695.06;10393273;28;20044;-71
2023/10/25 11:41:42;;;;;;;8.07;3.80;;;;;;;12.53;100.00;99690.97;10394541;28;20037;-71
2023/10/25 11:46:44;;;;;;;6.68;3.47;;;;;;;12.51;100.00;99682.16;10390837;28;20033;-71
2023/10/25 11:51:45;;;;;;;6.90;3.55;;;;;;;12.48;100.00;99689.06;10404151;28;20088;-72
2023/10/25 11:56:48;;;;;;;8.07;3.58;;;;;;;12.49;100.00;99681.63;10399803;28;20064;-71
2023/10/25 12:01:48;;;;;;;7.90;3.80;;;;;;;12.46;100.00;99680.28;10419007;28;20061;-71
2023/10/25 12:06:49;;;;;;;8.38;2.70;;;;;;;12.48;100.00;99666.97;10418694;28;20037;-72
2023/10/25 12:11:49;;;;;;;11.20;4.05;;;;;;;12.45;100.00;99667.59;10414543;28;20464;-71
2023/10/25 12:16:50;;;;;;;9.23;3.53;;;;;;;12.43;100.00;99663.50;10425934;28;20508;-70
2023/10/25 12:21:54;;;;;;;9.73;3.00;;;;;;;12.39;100.00;99654.16;10418628;28;20053;-71
2023/10/25 12:26:55;;;;;;;6.85;3.00;;;;;;;12.30;100.00;99640.22;10411003;28;20097;-71
2023/10/25 12:31:56;;;;;;;6.38;3.08;;;;;;;12.20;100.00;99638.41;10418290;28;20052;-71
2023/10/25 12:36:56;;;;;;;8.48;3.08;;;;;;;12.14;100.00;99631.28;10417721;28;20034;-72
2023/10/25 12:41:57;;;;;;;6.65;3.53;;;;;;;12.16;100.00;99631.81;10414613;28;20041;-71
2023/10/25 12:46:57;;;;;;;5.20;3.03;;;;;;;12.13;100.00;99632.41;10416184;28;20041;-71
2023/10/25 12:51:58;;;;;;;7.63;3.30;;;;;;;12.10;100.00;99619.22;10416935;28;20048;-72
2023/10/25 12:56:58;;;;;;;6.82;3.42;;;;;;;11.98;100.00;99603.06;10413602;28;20556;-72
2023/10/25 13:01:58;;;;;;;5.78;3.63;;;;;;;12.00;100.00;99600.03;10404626;28;20037;-71
2023/10/25 13:06:59;;;;;;;9.40;3.95;;;;;;;11.98;100.00;99599.50;10400025;28;20502;-70
2023/10/25 13:12:01;;;;;;;16.05;5.95;;;;;;;11.94;100.00;99595.69;10422553;28;20053;-66
2023/10/25 13:17:01;;;;;;;10.52;4.90;;;;;;;11.89;100.00;99585.53;10394158;28;20046;-71
2023/10/25 13:22:02;;;;;;;12.82;4.82;;;;;;;11.87;100.00;99580.28;10390274;28;20157;-72
2023/10/25 13:27:02;;;;;;;9.18;4.70;;;;;;;11.82;100.00;99583.09;10403953;28;20841;-71
2023/10/25 13:32:03;;;;;;;9.18;5.20;;;;;;;11.85;100.00;99579.75;10389654;28;20045;-72
2023/10/25 13:37:03;;;;;;;9.95;4.90;;;;;;;11.85;100.00;99573.44;10390232;28;20048;-72
2023/10/25 13:42:04;;;;;;;12.25;5.18;;;;;;;11.84;100.00;99564.31;10390035;28;20049;-72
2023/10/25 13:47:05;;;;;;;10.30;4.85;;;;;;;11.34;100.00;99500.41;10389875;28;20041;-72
2023/10/25 13:52:06;;;;;;;10.75;5.70;;;;;;;11.75;100.00;99559.75;10389582;28;20049;-73
2023/10/25 13:57:06;;;;;;;9.88;4.60;;;;;;;11.62;100.00;99556.59;10389996;28;20052;-72
2023/10/25 14:02:08;;;;;;;7.38;4.20;;;;;;;11.54;100.00;99550.91;10388708;28;20037;-73
2023/10/25 14:07:08;;;;;;;12.82;4.93;;;;;;;11.43;100.00;99548.28;10389153;28;20142;-73
2023/10/25 14:12:09;;;;;;;11.43;6.05;;;;;;;11.33;100.00;99556.66;10389730;28;20099;-73
2023/10/25 14:17:09;;;;;;;10.45;5.45;;;;;;;11.25;100.00;99555.34;10388460;28;20046;-72
2023/10/25 14:22:10;;;;;;;10.63;6.57;;;;;;;11.23;100.00;99548.50;10394841;28;20136;-66
2023/10/25 14:27:10;;;;;;;9.02;5.97;;;;;;;11.21;100.00;99551.53;10398299;28;20064;-72
2023/10/25 14:32:11;;;;;;;10.65;6.60;;;;;;;11.20;100.00;99546.31;10395282;28;20049;-73
2023/10/25 14:37:11;;;;;;;12.38;7.43;;;;;;;11.18;100.00;99529.25;10393670;28;20041;-73
2023/10/25 14:42:11;;;;;;;17.25;8.07;;;;;;;11.17;100.00;99538.63;10396103;28;20037;-72
2023/10/25 14:47:12;;;;;;;11.40;6.65;;;;;;;11.04;100.00;99524.44;10395096;28;20038;-72
2023/10/25 14:52:12;;;;;;;14.10;7.47;;;;;;;11.08;100.00;99535.69;10395946;28;20120;-72
2023/10/25 14:57:13;;;;;;;12.43;5.78;;;;;;;11.02;100.00;99534.91;10398234;28;20045;-73
2023/10/25 15:02:13;;;;;;;8.38;5.50;;;;;;;10.98;100.00;99530.28;10397706;28;20053;-72
2023/10/25 15:07:15;;;;;;;9.00;6.15;;;;;;;10.95;100.00;99539.94;10397392;28;20545;-72
2023/10/25 15:12:15;;;;;;;10.80;5.80;;;;;;;10.85;100.00;99526.25;10393981;28;20049;-72
2023/10/25 15:17:16;;;;;;;12.07;6.25;;;;;;;10.85;100.00;99515.25;10394706;28;20054;-66
2023/10/25 15:22:16;;;;;;;10.45;5.90;;;;;;;10.81;100.00;99525.19;10396518;28;20049;-72
2023/10/25 15:27:17;;;;;;;10.82;5.63;;;;;;;10.77;100.00;99530.47;10396723;28;20045;-72
2023/10/25 15:32:18;;;;;;;11.38;6.47;;;;;;;10.71;100.00;99531.63;10392667;28;20618;-72
2023/10/25 15:37:18;;;;;;;11.23;6.72;;;;;;;10.67;100.00;99525.06;10393796;28;20037;-72
2023/10/25 15:42:19;;;;;;;13.77;6.57;;;;;;;10.61;100.00;99521.50;10393087;28;20057;-72
2023/10/25 15:47:21;;;;;;;10.45;6.97;;;;;;;10.56;100.00;99516.03;10393637;28;20049;-72
2023/10/25 15:52:21;;;;;;;11.85;7.07;;;;;;;10.49;100.00;99515.56;10394904;28;20394;-73
2023/10/25 15:57:22;;;;;;;11.48;7.50;;;;;;;10.47;100.00;99515.00;10395563;28;20037;-72
2023/10/25 16:02:22;;;;;;;13.73;7.30;;;;;;;10.42;100.00;99518.63;10394129;28;20042;-72
2023/10/25 16:07:23;;;;;;;12.13;7.47;;;;;;;10.38;100.00;99517.56;10393580;28;20553;-71
2023/10/25 16:12:27;;;;;;;14.65;8.57;;;;;;;10.34;100.00;99521.19;10392737;28;20517;-71
2023/10/25 16:17:28;;;;;;;17.25;7.82;;;;;;;10.28;100.00;99507.41;10397024;28;20046;-71
2023/10/25 16:22:29;;;;;;;18.23;9.20;;;;;;;10.24;100.00;99506.34;10432489;28;20479;-71
2023/10/25 16:27:29;;;;;;;11.30;7.30;;;;;;;10.23;100.00;99510.22;10418992;28;20049;-71
2023/10/25 16:32:29;;;;;;;12.93;8.30;;;;;;;10.19;100.00;99503.63;10432197;28;20053;-72
2023/10/25 16:37:30;;;;;;;14.25;9.18;;;;;;;10.15;100.00;99508.06;10404815;28;20079;-71
2023/10/25 16:42:31;;;;;;;11.48;7.78;;;;;;;10.15;100.00;99502.56;10429801;28;20046;-66
2023/10/25 16:47:31;;;;;;;18.37;9.87;;;;;;;10.11;100.00;99498.75;10424592;28;22674;-71
2023/10/25 16:52:32;;;;;;;16.25;9.00;;;;;;;10.08;100.00;99502.03;10431497;28;20238;-71
2023/10/25 16:57:32;;;;;;;15.45;9.40;;;;;;;10.05;100.00;99499.88;10431191;28;20053;-70
2023/10/25 17:02:33;;;;;;;16.65;9.88;;;;;;;10.03;100.00;99504.84;10432169;28;20041;-71
2023/10/25 17:07:33;;;;;;;15.40;9.18;;;;;;;10.01;100.00;99496.06;10426342;28;20115;-71
2023/10/25 17:12:34;;;;;;;18.30;10.23;;;;;;;10.01;100.00;99501.56;10432442;28;20041;-70
2023/10/25 17:17:34;;;;;;;16.92;9.60;;;;;;;10.04;100.00;99500.97;10430413;28;20076;-71
2023/10/25 17:22:35;;;;;;;16.25;10.23;;;;;;;10.03;100.00;99493.84;10425265;28;20045;-71
2023/10/25 17:27:35;;;;;;;17.70;10.73;;;;;;;10.05;100.00;99486.94;10431692;28;20045;-72
2023/10/25 17:32:36;;;;;;;17.83;10.70;;;;;;;10.06;100.00;99490.50;10428116;28;20033;-73
2023/10/25 17:37:36;;;;;;;17.15;11.20;;;;;;;10.07;100.00;99483.91;10421542;28;20041;-66
2023/10/25 17:42:37;;;;;;;16.58;10.68;;;;;;;10.07;100.00;99483.91;10426507;28;20045;-73
2023/10/25 17:47:50;;;;;;;22.27;11.57;;;;;;;10.07;100.00;99483.91;10424071;28;20049;-75
2023/10/25 17:52:51;;;;;;;17.83;11.23;;;;;;;10.08;100.00;99480.88;10427134;28;20038;-74
2023/10/25 17:57:51;;;;;;;17.95;12.00;;;;;;;10.10;100.00;99497.09;10413911;28;20033;-77
2023/10/25 18:02:51;;;;;;;21.85;13.18;;;;;;;9.90;100.00;99457.63;10435985;28;20040;-77
2023/10/25 18:07:52;;;;;;;19.33;12.40;;;;;;;10.09;100.00;99487.22;10421989;28;20037;-77
2023/10/25 18:12:52;;;;;;;19.98;13.82;;;;;;;10.08;100.00;99486.38;10423343;28;20052;-77
2023/10/25 18:17:54;;;;;;;28.13;16.00;;;;;;;10.07;100.00;99489.41;10432473;28;20044;-76
2023/10/25 18:22:55;;;;;;;21.58;14.38;;;;;;;10.02;100.00;99486.69;10432488;28;20040;-76
2023/10/25 18:27:56;;;;;;;27.05;15.20;;;;;;;10.01;100.00;99485.88;10437029;28;20060;-77
2023/10/25 18:32:57;;;;;;;27.70;16.20;;;;;;;9.95;100.00;99475.19;10433686;28;20151;-76
2023/10/25 18:37:57;;;;;;;27.45;15.60;;;;;;;9.96;100.00;99487.81;10424806;28;20053;-74
2023/10/25 18:42:58;;;;;;;24.42;15.23;;;;;;;9.94;100.00;99477.09;10434013;28;20037;-75
2023/10/25 18:47:58;;;;;;;28.95;17.92;;;;;;;9.92;100.00;99470.25;10406959;28;20068;-69
2023/10/25 18:52:59;;;;;;;23.13;15.52;;;;;;;9.89;100.00;99466.97;10437074;28;20063;-74
2023/10/25 18:57:59;;;;;;;25.08;15.73;;;;;;;9.87;100.00;99466.44;10425219;28;20557;-75
2023/10/25 19:03:00;;;;;;;24.80;15.70;;;;;;;9.84;100.00;99469.75;10420571;28;20449;-74
2023/10/25 19:08:00;;;;;;;29.02;16.98;;;;;;;9.81;100.00;99459.31;10436583;28;20498;-74
2023/10/25 19:13:02;;;;;;;28.95;16.02;;;;;;;9.73;100.00;99457.16;10412091;28;20048;-73
2023/10/25 19:18:02;;;;;;;29.83;16.27;;;;;;;9.75;100.00;99460.44;10411435;28;20052;-74
2023/10/25 19:23:03;;;;;;;24.92;14.50;;;;;;;9.74;100.00;99458.81;10430327;28;20033;-74
2023/10/25 19:28:04;;;;;;;25.77;14.85;;;;;;;9.60;100.00;99441.31;10434751;28;20056;-74
2023/10/25 19:33:04;;;;;;;27.58;14.70;;;;;;;9.69;100.00;99461.59;10403281;28;20065;-74
2023/10/25 19:38:04;;;;;;;31.45;15.88;;;;;;;9.66;100.00;99451.16;10392351;28;20052;-74
2023/10/25 19:43:07;;;;;;;29.35;15.80;;;;;;;9.64;100.00;99453.38;10395707;28;20045;-73
2023/10/25 19:48:08;;;;;;;31.60;17.75;;;;;;;9.58;100.00;99449.03;10395306;28;20053;-73
2023/10/25 19:53:08;;;;;;;34.03;17.95;;;;;;;9.62;100.00;99452.84;10393655;28;20159;-73
2023/10/25 19:58:09;;;;;;;31.50;17.80;;;;;;;9.63;100.00;99457.22;10393228;28;20072;-74
2023/10/25 20:03:09;;;;;;;34.47;19.25;;;;;;;9.63;100.00;99459.97;10394218;28;20037;-73
2023/10/25 20:08:10;;;;;;;30.63;18.98;;;;;;;9.62;100.00;99453.66;10393479;28;20052;-73
2023/10/25 20:13:10;;;;;;;34.95;19.52;;;;;;;9.52;100.00;99433.66;10392347;28;20041;-75
2023/10/25 20:18:10;;;;;;;41.28;19.90;;;;;;;9.62;100.00;99445.41;10393509;28;20049;-74
2023/10/25 20:23:11;;;;;;;43.35;22.50;;;;;;;9.56;100.00;99440.22;10394928;28;20049;-74
2023/10/25 20:28:11;;;;;;;43.17;23.38;;;;;;;9.60;100.00;99446.81;10375471;28;20053;-73
2023/10/25 20:33:12;;;;;;;37.67;19.70;;;;;;;9.60;100.00;99444.06;10393103;28;20155;-74
2023/10/25 20:38:12;;;;;;;38.35;20.00;;;;;;;9.59;100.00;99451.50;10393481;28;20033;-73
2023/10/25 20:43:13;;;;;;;42.20;22.08;;;;;;;9.61;100.00;99443.78;10398960;28;20132;-71
2023/10/25 20:48:13;;;;;;;41.35;19.73;;;;;;;9.57;100.00;99431.72;10428993;28;20124;-72
2023/10/25 20:53:14;;;;;;;40.30;19.13;;;;;;;9.58;100.00;99438.84;10419524;28;20037;-74
2023/10/25 20:58:14;;;;;;;34.80;19.23;;;;;;;9.55;100.00;99441.31;10431379;28;20087;-74
2023/10/25 21:03:15;;;;;;;33.47;17.50;;;;;;;9.52;100.00;99444.66;10429063;28;20029;-73
2023/10/25 21:08:15;;;;;;;37.10;17.70;;;;;;;9.52;100.00;99444.66;10426097;28;20064;-73
2023/10/25 21:13:16;;;;;;;36.33;19.00;;;;;;;9.49;100.00;99443.28;10424731;28;20041;-74
2023/10/25 21:18:16;;;;;;;37.22;18.58;;;;;;;9.50;100.00;99450.41;10423383;28;20048;-74
2023/10/25 21:23:17;;;;;;;42.67;18.42;;;;;;;9.48;100.00;99444.38;10406587;28;20041;-74
2023/10/25 21:28:17;;;;;;;35.13;19.58;;;;;;;9.47;100.00;99451.81;10423559;28;20041;-74
2023/10/25 21:33:18;;;;;;;32.08;17.50;;;;;;;9.49;100.00;99440.56;10420898;28;20489;-73
2023/10/25 21:38:18;;;;;;;35.05;17.45;;;;;;;9.51;100.00;99454.81;10396755;28;20655;-74
2023/10/25 21:43:19;;;;;;;32.45;16.92;;;;;;;9.55;100.00;99450.41;10405984;28;20041;-73
2023/10/25 21:48:19;;;;;;;32.38;17.30;;;;;;;9.60;100.00;99449.56;10400492;28;20072;-73
2023/10/25 21:53:20;;;;;;;35.40;16.70;;;;;;;9.60;100.00;99453.13;10413879;28;20033;-74
2023/10/25 21:58:20;;;;;;;32.00;16.35;;;;;;;9.59;100.00;99446.00;10386042;28;20553;-74
2023/10/25 22:03:21;;;;;;;27.77;16.92;;;;;;;9.62;100.00;99455.59;10400213;28;20457;-73
2023/10/25 22:08:21;;;;;;;27.38;16.45;;;;;;;9.63;100.00;99448.97;10422647;28;20045;-73
2023/10/25 22:13:22;;;;;;;30.95;16.20;;;;;;;9.64;100.00;99458.88;10422087;28;20042;-72
2023/10/25 22:18:22;;;;;;;30.58;16.98;;;;;;;9.61;100.00;99454.78;10401845;28;20037;-73
2023/10/25 22:23:23;;;;;;;33.35;17.02;;;;;;;9.54;100.00;99439.69;10417221;28;20055;-74
2023/10/25 22:28:23;;;;;;;32.47;18.48;;;;;;;9.58;100.00;99454.50;10414415;28;20054;-66
2023/10/25 22:33:24;;;;;;;30.95;18.38;;;;;;;9.57;100.00;99450.94;10408185;28;20926;-74
2023/10/25 22:38:24;;;;;;;38.05;20.75;;;;;;;9.58;100.00;99471.00;10426349;28;20486;-73
2023/10/25 22:43:26;;;;;;;38.33;20.38;;;;;;;9.58;100.00;99455.31;10434816;28;20034;-73
2023/10/25 22:48:27;;;;;;;47.08;22.27;;;;;;;9.58;100.00;99454.50;10430834;28;20045;-73